Time;durP1;ratioP1;P1;durP2;ratioP2;P2;SDS_P1;SDS_P2;PMS_P1;PMS_P2;Temp;Humidity;BMP_temperature;BMP_pressure;BME280_temperature;BME280_humidity;BME280_pressure;Samples;Min_cycle;Max_cycle;Signal;HPM_P1;HPM_P2
2023/06/28 00:01:43;;;;;;;9.02;3.83;;;;;;;16.50;100.00;101707.34;5051757;28;20469;-47
2023/06/28 00:04:08;;;;;;;10.18;4.72;;;;;;;16.82;100.00;101763.53;5052085;28;20068;-49
2023/06/28 00:06:34;;;;;;;13.23;5.22;;;;;;;16.87;100.00;101780.16;5051892;28;20120;-48
2023/06/28 00:08:59;;;;;;;11.82;4.68;;;;;;;16.86;100.00;101772.25;5051893;28;20040;-49
2023/06/28 00:11:25;;;;;;;8.93;5.13;;;;;;;16.84;100.00;101772.28;5051802;28;20040;-50
2023/06/28 00:13:51;;;;;;;10.20;4.85;;;;;;;16.48;100.00;101710.06;5049875;28;20033;-49
2023/06/28 00:16:17;;;;;;;8.35;5.18;;;;;;;16.82;100.00;101773.31;5033640;28;20041;-46
2023/06/28 00:18:43;;;;;;;10.75;5.13;;;;;;;16.37;100.00;101707.03;5051624;28;20116;-50
2023/06/28 00:21:08;;;;;;;11.27;5.03;;;;;;;16.75;100.00;101769.19;5051514;28;20441;-48
2023/06/28 00:23:34;;;;;;;11.25;4.90;;;;;;;16.42;100.00;101710.34;5051628;28;20112;-51
2023/06/28 00:25:59;;;;;;;7.93;4.47;;;;;;;16.72;100.00;101764.84;5051538;28;20037;-48
2023/06/28 00:28:24;;;;;;;8.02;4.72;;;;;;;16.77;100.00;101764.66;5050799;28;20029;-49
2023/06/28 00:30:50;;;;;;;8.63;4.53;;;;;;;16.80;100.00;101775.16;5050873;28;20111;-48
2023/06/28 00:33:19;;;;;;;9.73;4.85;;;;;;;16.80;100.00;101770.72;5051540;28;20036;-49
2023/06/28 00:35:46;;;;;;;7.20;4.30;;;;;;;16.81;100.00;101772.44;5051611;28;20044;-46
2023/06/28 00:38:11;;;;;;;9.52;4.65;;;;;;;16.39;100.00;101699.84;5051663;28;20086;-49
2023/06/28 00:40:37;;;;;;;7.88;4.80;;;;;;;16.75;100.00;101767.38;5051432;28;20037;-50
2023/06/28 00:43:02;;;;;;;9.32;5.28;;;;;;;16.76;100.00;101768.25;5051380;28;20119;-50
2023/06/28 00:45:27;;;;;;;10.68;5.15;;;;;;;16.31;100.00;101696.66;5050797;28;20032;-48
2023/06/28 00:47:53;;;;;;;11.68;5.10;;;;;;;16.74;100.00;101771.00;5051241;28;20395;-49
2023/06/28 00:50:18;;;;;;;6.90;5.20;;;;;;;16.75;100.00;101767.38;5048994;28;20029;-50
2023/06/28 00:52:44;;;;;;;10.15;5.47;;;;;;;16.69;100.00;101764.13;5051166;28;20029;-48
2023/06/28 00:55:10;;;;;;;10.70;5.18;;;;;;;16.63;100.00;101751.13;5051312;28;20048;-48
2023/06/28 00:57:36;;;;;;;9.85;5.20;;;;;;;16.76;100.00;101763.81;5051338;28;20033;-50
2023/06/28 01:00:01;;;;;;;11.95;6.28;;;;;;;16.33;100.00;101687.69;5045862;28;20523;-49
2023/06/28 01:02:29;;;;;;;12.95;6.85;;;;;;;16.28;100.00;101675.53;5031389;28;20045;-49
2023/06/28 01:04:57;;;;;;;15.82;7.18;;;;;;;16.73;100.00;101755.09;5046681;28;20124;-48
2023/06/28 01:07:24;;;;;;;11.18;6.72;;;;;;;16.28;100.00;101684.38;5030037;28;20099;-48
2023/06/28 01:09:50;;;;;;;9.57;6.95;;;;;;;16.63;100.00;101749.31;5031259;28;20129;-51
2023/06/28 01:12:15;;;;;;;11.70;7.57;;;;;;;16.58;100.00;101755.78;5034707;28;20116;-47
2023/06/28 01:14:40;;;;;;;11.00;6.82;;;;;;;16.50;100.00;101745.41;5033786;28;20033;-46
2023/06/28 01:17:06;;;;;;;10.45;6.38;;;;;;;16.48;100.00;101749.94;5034752;28;20504;-47
2023/06/28 01:19:32;;;;;;;12.65;7.05;;;;;;;15.92;100.00;101663.78;5034926;28;20099;-48
2023/06/28 01:22:02;;;;;;;10.27;6.63;;;;;;;16.36;100.00;101745.13;5034941;28;20037;-51
2023/06/28 01:24:27;;;;;;;15.80;7.53;;;;;;;15.92;100.00;101672.59;5033454;28;20037;-51
2023/06/28 01:26:54;;;;;;;12.07;7.03;;;;;;;16.18;100.00;101717.53;5034730;28;20041;-49
2023/06/28 01:29:23;;;;;;;11.75;7.60;;;;;;;16.21;100.00;101732.47;5034622;28;20044;-49
2023/06/28 01:31:50;;;;;;;10.38;7.22;;;;;;;16.23;100.00;101742.13;5043627;28;20048;-49
2023/06/28 01:34:16;;;;;;;11.60;7.45;;;;;;;15.82;100.00;101673.91;5070076;28;20041;-48
2023/06/28 01:36:41;;;;;;;12.68;7.07;;;;;;;16.10;100.00;101726.75;5069901;28;20047;-47
2023/06/28 01:39:07;;;;;;;12.18;7.03;;;;;;;16.18;100.00;101740.56;5053197;28;20040;-47
2023/06/28 01:41:32;;;;;;;13.02;7.05;;;;;;;15.79;100.00;101681.16;5053139;28;20072;-49
2023/06/28 01:43:57;;;;;;;10.02;6.78;;;;;;;15.65;100.00;101660.44;5051958;28;20036;-47
2023/06/28 01:46:23;;;;;;;11.63;7.18;;;;;;;15.79;100.00;101686.47;5053429;28;20032;-47
2023/06/28 01:48:48;;;;;;;11.25;6.82;;;;;;;16.17;100.00;101746.84;5069783;28;20048;-49
2023/06/28 01:51:14;;;;;;;11.43;6.97;;;;;;;16.19;100.00;101752.94;5053355;28;20048;-47
2023/06/28 01:53:40;;;;;;;11.48;7.25;;;;;;;16.21;100.00;101741.31;5053078;28;20033;-46
2023/06/28 01:56:05;;;;;;;11.90;7.82;;;;;;;15.83;100.00;101670.31;5052605;28;20033;-50
2023/06/28 01:58:30;;;;;;;18.23;8.38;;;;;;;16.24;100.00;101738.53;5059184;28;20059;-46
2023/06/28 02:00:56;;;;;;;11.75;7.50;;;;;;;16.24;100.00;101738.53;5074201;28;20028;-48
2023/06/28 02:03:21;;;;;;;11.38;7.55;;;;;;;15.86;100.00;101672.00;5074080;28;20052;-50
2023/06/28 02:05:46;;;;;;;12.43;7.88;;;;;;;16.27;100.00;101743.72;5074014;28;20395;-46
2023/06/28 02:08:12;;;;;;;12.20;7.63;;;;;;;16.28;100.00;101747.25;5073837;28;20398;-50
2023/06/28 02:10:37;;;;;;;12.15;7.45;;;;;;;15.86;100.00;101672.00;5073952;28;20104;-47
2023/06/28 02:13:02;;;;;;;14.38;8.40;;;;;;;16.27;100.00;101738.41;5073852;28;20087;-47
2023/06/28 02:15:27;;;;;;;11.18;7.35;;;;;;;16.30;100.00;101735.63;5074032;28;20437;-48
2023/06/28 02:17:56;;;;;;;11.07;7.43;;;;;;;16.33;100.00;101734.63;5056009;28;20028;-45
2023/06/28 02:20:21;;;;;;;12.77;8.00;;;;;;;15.96;100.00;101665.38;5073861;28;20113;-49
2023/06/28 02:22:47;;;;;;;12.38;7.78;;;;;;;16.39;100.00;101741.47;5073120;28;20075;-47
2023/06/28 02:25:12;;;;;;;15.27;8.13;;;;;;;15.94;100.00;101653.94;5073935;28;20043;-45
2023/06/28 02:27:37;;;;;;;15.70;8.77;;;;;;;15.96;100.00;101654.78;5072287;28;20404;-47
2023/06/28 02:30:03;;;;;;;13.85;8.02;;;;;;;16.38;100.00;101729.97;5073821;28;20135;-45
2023/06/28 02:32:31;;;;;;;12.95;7.63;;;;;;;14.92;100.00;101472.41;5073213;28;20025;-46
2023/06/28 02:34:57;;;;;;;10.95;7.32;;;;;;;16.42;100.00;101725.41;5073387;28;20032;-46
2023/06/28 02:37:23;;;;;;;10.30;7.93;;;;;;;16.40;100.00;101711.34;5073500;28;20040;-49
2023/06/28 02:39:49;;;;;;;10.88;8.43;;;;;;;16.41;100.00;101708.59;5073515;28;20028;-48
2023/06/28 02:42:14;;;;;;;13.27;8.32;;;;;;;16.14;100.00;101664.63;5071828;28;20082;-45
2023/06/28 02:44:39;;;;;;;12.48;8.07;;;;;;;16.09;100.00;101651.53;5073270;28;20059;-46
2023/06/28 02:47:05;;;;;;;14.45;8.25;;;;;;;16.45;100.00;101715.53;5073418;28;20068;-51
2023/06/28 02:49:30;;;;;;;11.38;7.95;;;;;;;16.26;100.00;101680.00;5072036;28;20048;-47
2023/06/28 02:51:56;;;;;;;12.68;8.43;;;;;;;16.43;100.00;101704.09;5073376;28;20032;-46
2023/06/28 02:54:22;;;;;;;12.73;8.23;;;;;;;16.16;100.00;101645.03;5073180;28;20040;-46
2023/06/28 02:56:47;;;;;;;12.05;7.05;;;;;;;16.28;100.00;101665.75;5073098;28;20047;-49
2023/06/28 02:59:13;;;;;;;13.85;7.13;;;;;;;16.50;100.00;101702.03;5072896;28;20424;-47
2023/06/28 03:01:39;;;;;;;12.23;6.28;;;;;;;16.61;100.00;101708.63;5073082;28;20032;-47
2023/06/28 03:04:04;;;;;;;11.45;6.43;;;;;;;16.59;100.00;101705.19;5073312;28;20037;-46
2023/06/28 03:06:30;;;;;;;18.08;7.05;;;;;;;16.31;100.00;101660.28;5073008;28;20033;-45
2023/06/28 03:08:55;;;;;;;13.95;6.85;;;;;;;16.52;100.00;101690.38;5072970;28;20415;-48
2023/06/28 03:11:20;;;;;;;14.90;6.60;;;;;;;16.43;100.00;101679.31;5072775;28;20037;-46
2023/06/28 03:13:46;;;;;;;11.02;7.20;;;;;;;16.63;100.00;101712.09;5072958;28;20037;-47
2023/06/28 03:16:11;;;;;;;12.80;6.63;;;;;;;16.09;100.00;101616.13;5072863;28;20033;-46
2023/06/28 03:18:36;;;;;;;11.90;6.15;;;;;;;16.25;100.00;101635.81;5072916;28;20036;-44
2023/06/28 03:21:02;;;;;;;13.57;5.90;;;;;;;16.61;100.00;101721.91;5072608;28;20032;-46
2023/06/28 03:23:27;;;;;;;9.15;6.32;;;;;;;16.36;100.00;101659.25;5072491;28;20032;-49
2023/06/28 03:25:53;;;;;;;11.48;6.10;;;;;;;16.63;100.00;101716.56;5071342;28;20487;-46
2023/06/28 03:28:18;;;;;;;13.15;6.22;;;;;;;16.63;100.00;101700.59;5072439;28;20076;-46
2023/06/28 03:30:44;;;;;;;12.68;5.88;;;;;;;16.19;100.00;101626.31;5072465;28;20032;-49
2023/06/28 03:33:09;;;;;;;10.93;5.97;;;;;;;16.61;100.00;101705.97;5072683;28;20028;-46
2023/06/28 03:35:34;;;;;;;11.68;5.75;;;;;;;16.44;100.00;101679.22;5071539;28;20032;-48
2023/06/28 03:38:00;;;;;;;8.93;5.20;;;;;;;16.21;100.00;101612.94;5072406;28;20040;-47
2023/06/28 03:40:25;;;;;;;9.70;5.43;;;;;;;16.24;100.00;101634.94;5072512;28;20045;-47
2023/06/28 03:42:50;;;;;;;10.93;5.32;;;;;;;16.56;100.00;101689.38;5072542;28;20036;-47
2023/06/28 03:45:16;;;;;;;13.88;5.85;;;;;;;16.49;100.00;101676.41;5072393;28;20115;-45
2023/06/28 03:47:41;;;;;;;10.48;5.10;;;;;;;16.21;100.00;101624.44;5054342;28;20407;-47
2023/06/28 03:50:07;;;;;;;10.38;5.15;;;;;;;16.14;100.00;101608.84;5070995;28;20060;-45
2023/06/28 03:52:33;;;;;;;10.35;5.45;;;;;;;16.09;100.00;101600.19;5072095;28;20475;-48
2023/06/28 03:54:59;;;;;;;10.23;5.05;;;;;;;16.17;100.00;101614.03;5070479;28;20440;-45
2023/06/28 03:57:24;;;;;;;10.10;6.00;;;;;;;16.18;100.00;101619.25;5054461;28;20077;-47
2023/06/28 03:59:49;;;;;;;7.75;5.03;;;;;;;16.58;100.00;101689.31;5071898;28;20471;-45
2023/06/28 04:02:15;;;;;;;8.90;5.45;;;;;;;16.14;100.00;101609.69;5072025;28;20447;-47
2023/06/28 04:04:40;;;;;;;12.07;5.30;;;;;;;16.48;100.00;101669.34;5071980;28;20033;-48
2023/06/28 04:07:06;;;;;;;12.93;5.88;;;;;;;16.44;100.00;101667.75;5054086;28;20044;-50
2023/06/28 04:09:31;;;;;;;10.70;5.65;;;;;;;16.49;100.00;101685.22;5070757;28;20047;-47
2023/06/28 04:11:57;;;;;;;13.68;6.10;;;;;;;16.14;100.00;101625.63;5070706;28;20040;-46
2023/06/28 04:14:24;;;;;;;12.93;5.55;;;;;;;16.50;100.00;101686.06;5072363;28;20135;-48
2023/06/28 04:16:49;;;;;;;11.60;6.15;;;;;;;16.47;100.00;101678.22;5072099;28;20056;-47
2023/06/28 04:19:15;;;;;;;13.65;6.72;;;;;;;16.51;100.00;101691.34;5071891;28;20033;-50
2023/06/28 04:21:40;;;;;;;13.55;6.28;;;;;;;15.98;100.00;101603.31;5071868;28;20076;-48
2023/06/28 04:24:06;;;;;;;11.23;6.00;;;;;;;16.50;100.00;101689.59;5071743;28;20116;-47
2023/06/28 04:26:31;;;;;;;10.50;6.57;;;;;;;16.07;100.00;101612.69;5072059;28;20044;-46
2023/06/28 04:28:56;;;;;;;11.82;6.95;;;;;;;16.40;100.00;101667.03;5071944;28;20044;-46
2023/06/28 04:31:22;;;;;;;12.57;7.18;;;;;;;15.58;100.00;101543.09;5071882;28;20094;-51
2023/06/28 04:33:47;;;;;;;10.25;7.03;;;;;;;16.05;100.00;101603.94;5071704;28;20036;-46
2023/06/28 04:36:13;;;;;;;10.80;6.85;;;;;;;16.49;100.00;101684.38;5071790;28;20028;-46
2023/06/28 04:38:41;;;;;;;13.27;7.25;;;;;;;16.52;100.00;101686.91;5071469;28;20044;-46
2023/06/28 04:41:06;;;;;;;13.05;7.28;;;;;;;16.14;100.00;101608.84;5071634;28;20032;-46
2023/06/28 04:43:40;;;;;;;12.93;7.45;;;;;;;16.52;100.00;101674.44;5071527;28;20032;-46
2023/06/28 04:46:05;;;;;;;12.55;8.20;;;;;;;16.52;100.00;101673.59;5073557;28;20032;-51
2023/06/28 04:48:30;;;;;;;11.50;8.35;;;;;;;16.51;100.00;101667.41;5075323;28;20047;-49
2023/06/28 04:50:56;;;;;;;14.48;7.97;;;;;;;16.50;100.00;101656.84;5074276;28;20040;-47
2023/06/28 04:53:21;;;;;;;17.90;9.18;;;;;;;16.60;100.00;101679.47;5075526;28;20040;-47
2023/06/28 04:55:47;;;;;;;18.10;8.45;;;;;;;16.63;100.00;101682.00;5075557;28;20036;-47
2023/06/28 04:58:13;;;;;;;16.27;8.45;;;;;;;16.56;100.00;101660.13;5075285;28;20045;-48
2023/06/28 05:00:38;;;;;;;18.98;8.60;;;;;;;16.66;100.00;101668.56;5075110;28;20098;-46
2023/06/28 05:03:04;;;;;;;14.75;8.35;;;;;;;16.25;100.00;101604.78;5075237;28;20071;-48
2023/06/28 05:05:30;;;;;;;15.43;9.10;;;;;;;16.69;100.00;101674.63;5075017;28;20064;-47
2023/06/28 05:07:56;;;;;;;13.30;8.68;;;;;;;16.69;100.00;101663.13;5074842;28;20094;-46
2023/06/28 05:10:23;;;;;;;18.67;9.15;;;;;;;16.75;100.00;101686.78;5074853;28;20428;-48
2023/06/28 05:12:51;;;;;;;18.23;10.15;;;;;;;16.66;100.00;101657.94;5075226;28;20032;-46
2023/06/28 05:15:16;;;;;;;13.88;9.93;;;;;;;16.73;100.00;101668.22;5074992;28;20036;-48
2023/06/28 05:17:42;;;;;;;16.00;10.35;;;;;;;16.67;100.00;101649.00;5040392;28;20028;-45
2023/06/28 05:20:08;;;;;;;18.83;10.13;;;;;;;16.37;100.00;101592.75;5073790;28;20443;-48
2023/06/28 05:22:34;;;;;;;21.08;10.48;;;;;;;16.67;100.00;101643.69;5074689;28;20395;-48
2023/06/28 05:24:59;;;;;;;13.35;8.48;;;;;;;16.81;100.00;101671.38;5075196;28;20063;-47
2023/06/28 05:27:24;;;;;;;17.08;9.27;;;;;;;16.78;100.00;101666.22;5075406;28;20403;-46
2023/06/28 05:29:50;;;;;;;16.45;8.73;;;;;;;16.77;100.00;101671.63;5075028;28;20118;-46
2023/06/28 05:32:15;;;;;;;18.33;9.60;;;;;;;16.37;100.00;101583.94;5074842;28;20033;-51
2023/06/28 05:34:40;;;;;;;16.23;9.25;;;;;;;16.57;100.00;101621.13;5074719;28;20509;-49
2023/06/28 05:37:06;;;;;;;16.25;8.80;;;;;;;16.53;100.00;101603.56;5056644;28;20652;-46
2023/06/28 05:39:31;;;;;;;18.27;8.75;;;;;;;16.64;100.00;101623.44;5074644;28;20091;-46
2023/06/28 05:41:57;;;;;;;12.73;8.00;;;;;;;16.29;100.00;101563.00;5073902;28;20431;-49
2023/06/28 05:44:22;;;;;;;17.10;8.77;;;;;;;16.59;100.00;101592.69;5074557;28;20044;-48
2023/06/28 05:46:48;;;;;;;17.50;8.40;;;;;;;16.98;100.00;101644.06;5074333;28;20072;-48
2023/06/28 05:49:13;;;;;;;13.98;7.93;;;;;;;16.76;100.00;101606.94;5074534;28;20064;-46
2023/06/28 05:51:39;;;;;;;16.42;8.25;;;;;;;17.09;100.00;101655.06;5074174;28;20115;-46
2023/06/28 05:54:04;;;;;;;15.45;8.38;;;;;;;16.81;100.00;101588.13;5074486;28;20029;-48
2023/06/28 05:56:30;;;;;;;18.63;8.55;;;;;;;17.24;100.00;101651.69;5074140;28;20395;-45
2023/06/28 05:58:58;;;;;;;13.68;8.23;;;;;;;17.27;100.00;101643.56;5055525;28;20308;-47
2023/06/28 06:01:24;;;;;;;13.07;8.07;;;;;;;17.35;100.00;101652.03;5074233;28;20036;-47
2023/06/28 06:03:50;;;;;;;16.38;9.50;;;;;;;17.40;100.00;101635.81;5056444;28;20051;-48
2023/06/28 06:06:15;;;;;;;17.95;7.80;;;;;;;17.48;100.00;101644.34;5074207;28;20029;-48
2023/06/28 06:08:41;;;;;;;14.23;7.57;;;;;;;17.54;100.00;101648.50;5074232;28;20052;-49
2023/06/28 06:11:06;;;;;;;16.52;7.95;;;;;;;17.26;100.00;101577.09;5074200;28;20399;-51
2023/06/28 06:13:32;;;;;;;19.98;8.38;;;;;;;17.67;100.00;101642.53;5074305;28;20036;-48
2023/06/28 06:15:57;;;;;;;12.27;7.40;;;;;;;17.75;100.00;101650.13;5073601;28;20167;-51
2023/06/28 06:18:22;;;;;;;11.88;6.90;;;;;;;17.83;100.00;101653.28;5073829;28;20036;-50
2023/06/28 06:20:48;;;;;;;11.02;6.97;;;;;;;17.86;100.00;101658.47;5073774;28;20063;-50
2023/06/28 06:23:14;;;;;;;12.30;5.90;;;;;;;17.49;100.00;101587.47;5073723;28;20040;-47
2023/06/28 06:25:39;;;;;;;14.02;7.18;;;;;;;17.55;100.00;101589.88;5074023;28;20514;-49
2023/06/28 06:28:04;;;;;;;13.35;7.72;;;;;;;17.99;100.00;101657.78;5055850;28;20076;-54
2023/06/28 06:30:29;;;;;;;18.60;9.10;;;;;;;17.61;100.00;101581.59;5073597;28;20029;-50
2023/06/28 06:32:55;;;;;;;18.02;10.65;;;;;;;17.62;100.00;101575.34;5073620;28;20028;-48
2023/06/28 06:35:20;;;;;;;21.80;13.60;;;;;;;17.77;100.00;101587.88;5055425;28;20456;-48
2023/06/28 06:37:46;;;;;;;24.33;15.30;;;;;;;17.94;100.00;101605.66;5073428;28;20078;-48
2023/06/28 06:40:11;;;;;;;23.80;16.05;;;;;;;18.28;100.00;101642.09;5055698;28;20064;-47
2023/06/28 06:42:38;;;;;;;23.63;17.20;;;;;;;17.95;100.00;101592.25;5072279;28;20036;-49
2023/06/28 06:45:05;;;;;;;23.65;15.75;;;;;;;18.04;100.00;101598.09;5073297;28;20036;-47
2023/06/28 06:47:30;;;;;;;21.55;16.25;;;;;;;18.47;100.00;101653.53;5073241;28;20039;-49
2023/06/28 06:49:55;;;;;;;23.40;15.20;;;;;;;18.55;100.00;101664.69;5073337;28;20059;-46
2023/06/28 06:52:21;;;;;;;21.75;13.48;;;;;;;18.64;100.00;101647.34;5072977;28;20072;-48
2023/06/28 06:54:46;;;;;;;16.38;11.65;;;;;;;18.65;100.00;101652.59;5072972;28;20040;-50
2023/06/28 06:57:11;;;;;;;16.85;11.85;;;;;;;18.62;100.00;101627.91;5073014;28;20236;-49
2023/06/28 06:59:37;;;;;;;19.67;12.30;;;;;;;18.43;100.00;101590.66;5072939;28;20049;-49
2023/06/28 07:02:02;;;;;;;19.85;12.77;;;;;;;18.48;100.00;101599.25;5072936;28;20422;-47
2023/06/28 07:04:28;;;;;;;19.42;13.23;;;;;;;18.47;100.00;101603.75;5072984;28;20032;-48
2023/06/28 07:06:53;;;;;;;19.92;14.27;;;;;;;18.93;100.00;101665.31;5072386;28;20391;-50
2023/06/28 07:09:18;;;;;;;23.25;14.45;;;;;;;19.07;100.00;101670.78;5073117;28;20456;-49
2023/06/28 07:11:44;;;;;;;18.38;13.27;;;;;;;18.83;100.00;101616.06;5072935;28;20154;-51
2023/06/28 07:14:10;;;;;;;17.70;13.52;;;;;;;18.84;100.00;101615.13;5072718;28;20062;-49
2023/06/28 07:16:35;;;;;;;19.20;13.10;;;;;;;19.23;100.00;101666.34;5072606;28;20102;-48
2023/06/28 07:19:05;;;;;;;18.98;13.00;;;;;;;19.40;100.00;101673.44;5072608;28;20040;-56
2023/06/28 07:21:31;;;;;;;18.00;12.50;;;;;;;19.35;100.00;101667.47;5072615;28;20068;-46
2023/06/28 07:23:56;;;;;;;17.38;10.50;;;;;;;19.43;100.00;101676.81;5072459;28;20075;-51
2023/06/28 07:26:22;;;;;;;14.68;11.45;;;;;;;19.51;100.00;101679.03;5072467;28;20109;-48
2023/06/28 07:28:47;;;;;;;17.48;9.63;;;;;;;19.57;100.00;101686.69;5054485;28;20477;-50
2023/06/28 07:31:13;;;;;;;13.15;7.55;;;;;;;19.64;100.00;101694.25;5072415;28;20119;-51
2023/06/28 07:33:40;;;;;;;10.98;6.85;;;;;;;19.65;100.00;101685.31;5072502;28;20119;-50
2023/06/28 07:36:05;;;;;;;15.13;7.25;;;;;;;19.77;100.00;101689.09;5072560;28;20024;-48
2023/06/28 07:38:31;;;;;;;14.35;7.20;;;;;;;19.38;100.00;101617.41;5072119;28;20493;-50
2023/06/28 07:40:56;;;;;;;14.20;7.20;;;;;;;19.87;100.00;101687.63;5072548;28;20081;-48
2023/06/28 07:43:21;;;;;;;12.30;7.80;;;;;;;19.70;100.00;101641.47;5072309;28;20036;-48
2023/06/28 07:45:47;;;;;;;15.60;7.18;;;;;;;19.65;100.00;101621.22;5072351;28;20051;-47
2023/06/28 07:48:12;;;;;;;17.27;7.57;;;;;;;19.98;100.00;101673.63;5072004;28;20178;-49
2023/06/28 07:50:37;;;;;;;13.93;7.25;;;;;;;20.03;100.00;101687.59;5071962;28;20125;-49
2023/06/28 07:53:03;;;;;;;17.80;7.88;;;;;;;19.80;100.00;101637.28;5072017;28;20047;-49
2023/06/28 07:55:29;;;;;;;13.45;7.00;;;;;;;20.17;100.00;101693.84;5071957;28;20052;-51
2023/06/28 07:57:57;;;;;;;12.63;7.43;;;;;;;20.09;100.00;101688.09;5052603;28;20044;-47
2023/06/28 08:00:24;;;;;;;14.93;7.47;;;;;;;19.98;100.00;101676.31;5051713;28;20032;-52
2023/06/28 08:02:49;;;;;;;9.18;6.88;;;;;;;20.00;100.00;101683.28;5051581;28;20078;-48
2023/06/28 08:05:15;;;;;;;14.77;7.95;;;;;;;19.71;100.00;101624.47;5067579;28;20068;-52
2023/06/28 08:07:40;;;;;;;11.57;6.95;;;;;;;19.62;100.00;101613.38;5059300;28;20143;-49
2023/06/28 08:10:06;;;;;;;15.82;8.13;;;;;;;19.71;100.00;101617.31;5070032;28;20048;-48
2023/06/28 08:12:31;;;;;;;15.43;7.70;;;;;;;20.16;100.00;101688.59;5068396;28;20082;-48
2023/06/28 08:14:56;;;;;;;15.32;8.15;;;;;;;20.15;100.00;101697.56;5068706;28;20093;-49
2023/06/28 08:17:22;;;;;;;13.50;9.02;;;;;;;19.66;100.00;101619.41;5051632;28;20044;-53
2023/06/28 08:19:47;;;;;;;14.35;9.93;;;;;;;19.83;100.00;101643.31;5069429;28;20043;-52
2023/06/28 08:22:13;;;;;;;15.05;10.00;;;;;;;19.67;100.00;101616.63;5034896;28;20119;-53
2023/06/28 08:24:39;;;;;;;16.80;9.52;;;;;;;20.03;100.00;101691.13;5069963;28;20048;-50
2023/06/28 08:27:05;;;;;;;15.07;9.27;;;;;;;20.07;100.00;101698.03;5051719;28;20506;-48
2023/06/28 08:29:30;;;;;;;13.98;8.85;;;;;;;20.02;100.00;101676.03;5069968;28;20463;-53
2023/06/28 08:31:55;;;;;;;17.70;9.77;;;;;;;19.87;100.00;101652.91;5069877;28;20091;-53
2023/06/28 08:34:21;;;;;;;18.13;9.80;;;;;;;20.07;100.00;101665.09;5070061;28;20120;-50
2023/06/28 08:36:46;;;;;;;17.83;10.02;;;;;;;20.18;100.00;101638.56;5070826;28;20072;-51
2023/06/28 08:39:11;;;;;;;16.70;9.20;;;;;;;20.16;100.00;101632.47;5052071;28;20434;-55
2023/06/28 08:41:38;;;;;;;13.85;9.02;;;;;;;20.72;100.00;101687.91;5069752;28;20063;-51
2023/06/28 08:44:05;;;;;;;12.20;8.27;;;;;;;20.76;100.00;101673.38;5051283;28;20081;-51
2023/06/28 08:46:30;;;;;;;17.60;9.63;;;;;;;20.67;100.00;101629.31;5051486;28;20044;-53
2023/06/28 08:48:56;;;;;;;17.45;10.70;;;;;;;21.06;100.00;101673.31;5050968;28;20509;-53
2023/06/28 08:51:22;;;;;;;17.30;9.75;;;;;;;21.25;100.00;101696.16;5034507;28;20032;-49
2023/06/28 08:53:48;;;;;;;14.93;9.68;;;;;;;20.94;100.00;101636.59;5051230;28;20032;-51
2023/06/28 08:56:15;;;;;;;13.25;10.02;;;;;;;21.33;100.00;101698.38;5069212;28;20037;-50
2023/06/28 08:58:44;;;;;;;15.55;10.48;;;;;;;21.27;100.00;101698.75;5068693;28;20041;-52
2023/06/28 09:01:10;;;;;;;23.00;11.45;;;;;;;21.24;100.00;101685.56;5069164;28;20041;-51
2023/06/28 09:03:40;;;;;;;13.93;9.90;;;;;;;21.20;100.00;101692.06;5049958;28;20412;-50
2023/06/28 09:06:05;;;;;;;20.17;11.25;;;;;;;21.21;100.00;101694.66;5051326;28;20033;-49
2023/06/28 09:08:31;;;;;;;19.70;11.77;;;;;;;21.07;100.00;101675.03;5069030;28;20502;-52
2023/06/28 09:10:59;;;;;;;16.58;11.48;;;;;;;20.74;100.00;101611.09;5069353;28;20033;-48
2023/06/28 09:13:25;;;;;;;15.35;10.68;;;;;;;20.95;100.00;101625.81;5051479;28;20174;-55
2023/06/28 09:15:50;;;;;;;16.08;11.52;;;;;;;21.29;100.00;101688.81;5069158;28;20131;-51
2023/06/28 09:18:15;;;;;;;16.35;11.90;;;;;;;21.24;100.00;101707.00;5034619;28;20040;-52
2023/06/28 09:20:53;;;;;;;19.85;11.88;;;;;;;21.23;100.00;101692.72;5069144;28;20117;-51
2023/06/28 09:23:30;;;;;;;20.33;12.23;;;;;;;20.78;100.00;101613.47;5069111;28;20037;-52
2023/06/28 09:25:55;;;;;;;19.50;11.07;;;;;;;20.91;100.00;101618.06;5068932;28;20130;-51
2023/06/28 09:28:32;;;;;;;18.05;12.05;;;;;;;21.04;100.00;101611.84;5050477;28;20084;-44
2023/06/28 09:30:57;;;;;;;20.10;11.68;;;;;;;21.20;100.00;101623.31;5068903;28;20044;-46
2023/06/28 09:33:23;;;;;;;20.38;11.10;;;;;;;21.55;100.00;101677.28;5070306;28;20040;-50
2023/06/28 09:35:56;;;;;;;20.23;11.20;;;;;;;21.28;100.00;101620.13;5071170;28;20476;-47
2023/06/28 09:38:22;;;;;;;19.70;10.93;;;;;;;21.35;100.00;101624.13;5053169;28;20033;-49
2023/06/28 09:40:55;;;;;;;19.00;11.60;;;;;;;21.35;100.00;101616.09;5071942;28;20089;-46
2023/06/28 09:43:21;;;;;;;24.38;13.18;;;;;;;21.80;100.00;101672.03;5071434;28;20035;-51
2023/06/28 09:45:47;;;;;;;17.77;11.18;;;;;;;21.68;100.00;101664.81;5072035;28;20036;-49
2023/06/28 09:48:12;;;;;;;17.88;12.25;;;;;;;21.50;100.00;101612.44;5071696;28;20364;-48
2023/06/28 09:50:40;;;;;;;18.33;12.27;;;;;;;21.85;100.00;101683.31;5071854;28;20090;-48
2023/06/28 09:53:16;;;;;;;18.17;12.20;;;;;;;21.44;100.00;101609.28;5072638;28;20031;-54
2023/06/28 09:55:49;;;;;;;21.75;13.82;;;;;;;21.87;100.00;101669.81;5072008;28;20083;-46
2023/06/28 09:58:21;;;;;;;19.35;12.25;;;;;;;21.70;100.00;101635.22;5053682;28;20056;-48
2023/06/28 10:00:48;;;;;;;18.38;11.68;;;;;;;22.28;100.00;101681.34;5071997;28;20032;-49
2023/06/28 10:03:15;;;;;;;18.98;11.10;;;;;;;22.50;100.00;101693.28;5053818;28;20117;-46
2023/06/28 10:05:43;;;;;;;18.00;10.90;;;;;;;22.75;100.00;101693.34;5072051;28;20024;-47
2023/06/28 10:08:10;;;;;;;16.95;12.10;;;;;;;22.40;100.00;101624.16;5071441;28;20040;-49
2023/06/28 10:10:37;;;;;;;20.85;11.85;;;;;;;22.86;100.00;101698.81;5072040;28;20032;-51
2023/06/28 10:13:05;;;;;;;19.38;11.38;;;;;;;22.54;100.00;101643.78;5071930;28;20040;-47
2023/06/28 10:15:35;;;;;;;17.35;10.48;;;;;;;22.26;100.00;101636.81;5071866;28;20372;-48
2023/06/28 10:18:01;;;;;;;17.67;10.38;;;;;;;22.23;100.00;101685.28;5054019;28;20064;-49
2023/06/28 10:20:27;;;;;;;20.08;11.27;;;;;;;22.02;100.00;101682.22;5053774;28;20058;-47
2023/06/28 10:22:52;;;;;;;20.45;11.30;;;;;;;21.73;100.00;101683.25;5036801;28;20044;-46
2023/06/28 10:25:18;;;;;;;18.35;10.75;;;;;;;21.55;100.00;101663.88;5037533;28;20047;-48
2023/06/28 10:27:44;;;;;;;18.50;10.32;;;;;;;21.47;100.00;101615.31;5071265;28;20471;-48
2023/06/28 10:30:10;;;;;;;22.77;11.27;;;;;;;21.97;100.00;101668.28;5053351;28;20119;-46
2023/06/28 10:32:36;;;;;;;20.45;10.80;;;;;;;22.13;100.00;101682.34;5071274;28;20035;-49
2023/06/28 10:35:02;;;;;;;15.27;10.82;;;;;;;22.15;100.00;101667.06;5053364;28;20341;-46
2023/06/28 10:37:28;;;;;;;16.67;10.77;;;;;;;22.05;100.00;101628.41;5053527;28;20040;-49
2023/06/28 10:39:53;;;;;;;16.67;10.85;;;;;;;22.39;100.00;101676.09;5053262;28;20472;-46
2023/06/28 10:42:20;;;;;;;21.00;11.57;;;;;;;22.59;100.00;101674.72;5053103;28;20025;-50
2023/06/28 10:44:56;;;;;;;20.08;10.93;;;;;;;23.02;100.00;101685.16;5052707;28;20502;-48
2023/06/28 10:47:22;;;;;;;15.40;11.13;;;;;;;23.24;100.00;101623.56;5052858;28;20088;-51
2023/06/28 10:50:10;;;;;;;13.05;9.48;;;;;;;24.09;100.00;101653.88;5052929;28;20040;-51
2023/06/28 10:52:45;;;;;;;16.13;10.50;;;;;;;24.27;100.00;101648.09;5070691;28;20093;-48
2023/06/28 10:55:11;;;;;;;15.55;10.60;;;;;;;24.15;100.00;101635.59;5051252;28;20472;-48
2023/06/28 10:57:41;;;;;;;18.63;10.93;;;;;;;24.17;100.00;101682.91;5069581;28;20036;-47
2023/06/28 11:00:11;;;;;;;13.93;10.00;;;;;;;23.94;100.00;101705.25;5053241;28;20056;-50
2023/06/28 11:02:54;;;;;;;20.75;12.23;;;;;;;23.31;100.00;101644.50;5071245;28;20063;-47